sensor_id;sensor_type;location;lat;lon;timestamp;pressure;altitude;pressure_sealevel;temperature;humidity
33454;BME280;39400;49.744;7.012;2023-04-30T00:01:41;96367.56;;;9.00;100.00
33454;BME280;39400;49.744;7.012;2023-04-30T00:04:06;96361.81;;;8.79;100.00
33454;BME280;39400;49.744;7.012;2023-04-30T00:06:32;96367.75;;;8.54;100.00
33454;BME280;39400;49.744;7.012;2023-04-30T00:08:57;96358.91;;;8.38;100.00
33454;BME280;39400;49.744;7.012;2023-04-30T00:11:22;96358.13;;;8.38;100.00
33454;BME280;39400;49.744;7.012;2023-04-30T00:13:48;96350.13;;;8.29;100.00
33454;BME280;39400;49.744;7.012;2023-04-30T00:16:13;96360.72;;;8.30;100.00
33454;BME280;39400;49.744;7.012;2023-04-30T00:18:38;96364.59;;;8.52;100.00
33454;BME280;39400;49.744;7.012;2023-04-30T00:21:04;96363.53;;;8.61;100.00
33454;BME280;39400;49.744;7.012;2023-04-30T00:23:29;96362.38;;;8.62;100.00
33454;BME280;39400;49.744;7.012;2023-04-30T00:25:54;96361.97;;;8.60;100.00
33454;BME280;39400;49.744;7.012;2023-04-30T00:28:20;96357.75;;;8.39;100.00
33454;BME280;39400;49.744;7.012;2023-04-30T00:30:45;96363.84;;;8.29;100.00
33454;BME280;39400;49.744;7.012;2023-04-30T00:33:10;96368.03;;;8.23;100.00
33454;BME280;39400;49.744;7.012;2023-04-30T00:35:36;96361.50;;;8.31;100.00
33454;BME280;39400;49.744;7.012;2023-04-30T00:38:01;96368.09;;;8.49;100.00
33454;BME280;39400;49.744;7.012;2023-04-30T00:40:26;96367.25;;;8.45;100.00
33454;BME280;39400;49.744;7.012;2023-04-30T00:42:52;96364.19;;;8.50;100.00
33454;BME280;39400;49.744;7.012;2023-04-30T00:45:17;96361.44;;;8.50;100.00
33454;BME280;39400;49.744;7.012;2023-04-30T00:47:43;96360.16;;;8.71;100.00
33454;BME280;39400;49.744;7.012;2023-04-30T00:50:08;96361.00;;;8.75;100.00
33454;BME280;39400;49.744;7.012;2023-04-30T00:52:33;96347.53;;;8.63;100.00
33454;BME280;39400;49.744;7.012;2023-04-30T00:54:59;96356.47;;;8.60;100.00
33454;BME280;39400;49.744;7.012;2023-04-30T00:57:25;96355.97;;;8.50;100.00
33454;BME280;39400;49.744;7.012;2023-04-30T00:59:51;96358.16;;;8.41;100.00
33454;BME280;39400;49.744;7.012;2023-04-30T01:02:17;96357.47;;;8.48;100.00
33454;BME280;39400;49.744;7.012;2023-04-30T01:04:42;96345.81;;;8.54;100.00
33454;BME280;39400;49.744;7.012;2023-04-30T01:07:08;96348.91;;;8.49;100.00
33454;BME280;39400;49.744;7.012;2023-04-30T01:09:33;96351.34;;;8.58;100.00
33454;BME280;39400;49.744;7.012;2023-04-30T01:14:53;96351.66;;;8.26;100.00
33454;BME280;39400;49.744;7.012;2023-04-30T01:20:14;96340.53;;;8.16;100.00
33454;BME280;39400;49.744;7.012;2023-04-30T01:22:54;96348.84;;;7.96;100.00
33454;BME280;39400;49.744;7.012;2023-04-30T01:25:45;96342.97;;;7.94;100.00
33454;BME280;39400;49.744;7.012;2023-04-30T01:28:15;96345.13;;;7.85;100.00
33454;BME280;39400;49.744;7.012;2023-04-30T01:30:42;96344.59;;;7.76;100.00
33454;BME280;39400;49.744;7.012;2023-04-30T01:33:08;96338.31;;;7.75;100.00
33454;BME280;39400;49.744;7.012;2023-04-30T01:35:45;96340.72;;;7.77;100.00
33454;BME280;39400;49.744;7.012;2023-04-30T01:38:35;96347.75;;;7.78;100.00
33454;BME280;39400;49.744;7.012;2023-04-30T01:41:17;96345.81;;;8.01;100.00
33454;BME280;39400;49.744;7.012;2023-04-30T01:43:55;96347.25;;;7.95;100.00
33454;BME280;39400;49.744;7.012;2023-04-30T01:46:27;96349.72;;;8.00;100.00
33454;BME280;39400;49.744;7.012;2023-04-30T01:51:41;96346.88;;;8.20;100.00
33454;BME280;39400;49.744;7.012;2023-04-30T01:54:50;96351.44;;;8.12;100.00
33454;BME280;39400;49.744;7.012;2023-04-30T01:57:37;96350.38;;;8.20;100.00
33454;BME280;39400;49.744;7.012;2023-04-30T02:00:04;96349.09;;;8.10;100.00
33454;BME280;39400;49.744;7.012;2023-04-30T02:02:38;96342.28;;;7.78;100.00
33454;BME280;39400;49.744;7.012;2023-04-30T02:05:04;96350.66;;;8.12;100.00
33454;BME280;39400;49.744;7.012;2023-04-30T02:07:37;96347.38;;;8.02;100.00
33454;BME280;39400;49.744;7.012;2023-04-30T02:10:04;96346.81;;;8.16;100.00
33454;BME280;39400;49.744;7.012;2023-04-30T02:12:30;96350.31;;;7.90;100.00
33454;BME280;39400;49.744;7.012;2023-04-30T02:14:55;96352.50;;;7.81;100.00
33454;BME280;39400;49.744;7.012;2023-04-30T02:17:21;96357.25;;;7.84;100.00
33454;BME280;39400;49.744;7.012;2023-04-30T02:19:46;96345.56;;;7.87;100.00
33454;BME280;39400;49.744;7.012;2023-04-30T02:22:11;96344.22;;;8.00;100.00
33454;BME280;39400;49.744;7.012;2023-04-30T02:24:37;96344.22;;;8.00;100.00
33454;BME280;39400;49.744;7.012;2023-04-30T02:27:02;96343.34;;;7.96;100.00
33454;BME280;39400;49.744;7.012;2023-04-30T02:29:27;96349.66;;;7.97;100.00
33454;BME280;39400;49.744;7.012;2023-04-30T02:31:53;96348.56;;;8.28;100.00
33454;BME280;39400;49.744;7.012;2023-04-30T02:34:18;96355.84;;;8.43;100.00
33454;BME280;39400;49.744;7.012;2023-04-30T02:36:44;96349.19;;;8.71;100.00
33454;BME280;39400;49.744;7.012;2023-04-30T02:39:09;96351.25;;;8.77;100.00
33454;BME280;39400;49.744;7.012;2023-04-30T02:41:34;96357.63;;;8.58;100.00
33454;BME280;39400;49.744;7.012;2023-04-30T02:44:00;96349.19;;;8.18;100.00
33454;BME280;39400;49.744;7.012;2023-04-30T02:46:25;96340.69;;;8.00;100.00
33454;BME280;39400;49.744;7.012;2023-04-30T02:48:50;96338.75;;;8.00;100.00
33454;BME280;39400;49.744;7.012;2023-04-30T02:51:16;96337.88;;;7.96;100.00
33454;BME280;39400;49.744;7.012;2023-04-30T02:53:41;96337.47;;;7.94;100.00
33454;BME280;39400;49.744;7.012;2023-04-30T02:56:06;96344.13;;;7.93;100.00
33454;BME280;39400;49.744;7.012;2023-04-30T02:58:32;96346.09;;;7.96;100.00
33454;BME280;39400;49.744;7.012;2023-04-30T03:00:57;96343.31;;;7.93;100.00
33454;BME280;39400;49.744;7.012;2023-04-30T03:03:23;96340.22;;;7.94;100.00
33454;BME280;39400;49.744;7.012;2023-04-30T03:05:48;96342.22;;;7.97;100.00
33454;BME280;39400;49.744;7.012;2023-04-30T03:08:14;96335.97;;;7.97;100.00
33454;BME280;39400;49.744;7.012;2023-04-30T03:10:40;96337.81;;;7.93;100.00
33454;BME280;39400;49.744;7.012;2023-04-30T03:13:05;96332.28;;;7.89;100.00
33454;BME280;39400;49.744;7.012;2023-04-30T03:15:32;96331.25;;;8.24;100.00
33454;BME280;39400;49.744;7.012;2023-04-30T03:17:58;96339.59;;;8.31;100.00
33454;BME280;39400;49.744;7.012;2023-04-30T03:20:24;96334.22;;;8.12;100.00
33454;BME280;39400;49.744;7.012;2023-04-30T03:22:49;96329.59;;;8.16;100.00
33454;BME280;39400;49.744;7.012;2023-04-30T03:25:14;96329.09;;;8.10;100.00
33454;BME280;39400;49.744;7.012;2023-04-30T03:27:40;96327.41;;;8.02;100.00
33454;BME280;39400;49.744;7.012;2023-04-30T03:30:06;96335.06;;;8.16;100.00
33454;BME280;39400;49.744;7.012;2023-04-30T03:32:31;96332.41;;;7.96;100.00
33454;BME280;39400;49.744;7.012;2023-04-30T03:34:57;96331.94;;;8.17;100.00
33454;BME280;39400;49.744;7.012;2023-04-30T03:37:22;96334.19;;;8.08;100.00
33454;BME280;39400;49.744;7.012;2023-04-30T03:39:48;96330.22;;;8.05;100.00
33454;BME280;39400;49.744;7.012;2023-04-30T03:42:13;96325.47;;;8.02;100.00
33454;BME280;39400;49.744;7.012;2023-04-30T03:44:38;96322.94;;;8.17;100.00
33454;BME280;39400;49.744;7.012;2023-04-30T03:47:04;96324.66;;;8.25;100.00
33454;BME280;39400;49.744;7.012;2023-04-30T03:49:29;96335.81;;;8.13;100.00
33454;BME280;39400;49.744;7.012;2023-04-30T03:51:54;96320.41;;;8.31;100.00
33454;BME280;39400;49.744;7.012;2023-04-30T03:54:20;96333.59;;;8.48;100.00
33454;BME280;39400;49.744;7.012;2023-04-30T03:56:45;96328.22;;;8.29;100.00
33454;BME280;39400;49.744;7.012;2023-04-30T03:59:10;96333.59;;;8.22;100.00
33454;BME280;39400;49.744;7.012;2023-04-30T04:01:36;96324.38;;;8.33;100.00
33454;BME280;39400;49.744;7.012;2023-04-30T04:04:01;96328.03;;;8.15;100.00
33454;BME280;39400;49.744;7.012;2023-04-30T04:06:28;96324.59;;;8.21;100.00
33454;BME280;39400;49.744;7.012;2023-04-30T04:08:53;96325.06;;;8.27;100.00
33454;BME280;39400;49.744;7.012;2023-04-30T04:11:21;96327.22;;;8.14;100.00
33454;BME280;39400;49.744;7.012;2023-04-30T04:13:46;96325.91;;;8.04;100.00
33454;BME280;39400;49.744;7.012;2023-04-30T04:16:12;96326.31;;;8.06;100.00
33454;BME280;39400;49.744;7.012;2023-04-30T04:18:37;96327.19;;;8.10;100.00
33454;BME280;39400;49.744;7.012;2023-04-30T04:21:03;96328.03;;;8.15;100.00
33454;BME280;39400;49.744;7.012;2023-04-30T04:23:29;96332.19;;;8.31;100.00
33454;BME280;39400;49.744;7.012;2023-04-30T04:25:54;96328.97;;;8.26;100.00
33454;BME280;39400;49.744;7.012;2023-04-30T04:28:20;96334.63;;;8.14;100.00
33454;BME280;39400;49.744;7.012;2023-04-30T04:30:45;96338.66;;;7.93;100.00
33454;BME280;39400;49.744;7.012;2023-04-30T04:33:10;96333.88;;;8.40;100.00
33454;BME280;39400;49.744;7.012;2023-04-30T04:35:36;96343.22;;;8.12;100.00
33454;BME280;39400;49.744;7.012;2023-04-30T04:38:01;96340.81;;;8.33;100.00
33454;BME280;39400;49.744;7.012;2023-04-30T04:40:27;96332.38;;;8.42;100.00
33454;BME280;39400;49.744;7.012;2023-04-30T04:42:53;96341.44;;;8.23;100.00
33454;BME280;39400;49.744;7.012;2023-04-30T04:45:18;96330.38;;;8.16;100.00
33454;BME280;39400;49.744;7.012;2023-04-30T04:47:43;96336.97;;;8.12;100.00
33454;BME280;39400;49.744;7.012;2023-04-30T04:50:09;96338.13;;;8.10;100.00
33454;BME280;39400;49.744;7.012;2023-04-30T04:52:35;96341.38;;;8.43;100.00
33454;BME280;39400;49.744;7.012;2023-04-30T04:55:00;96344.56;;;8.22;100.00
33454;BME280;39400;49.744;7.012;2023-04-30T04:57:25;96342.16;;;8.20;100.00
33454;BME280;39400;49.744;7.012;2023-04-30T04:59:51;96344.56;;;8.22;100.00
33454;BME280;39400;49.744;7.012;2023-04-30T05:02:17;96346.19;;;8.26;100.00
33454;BME280;39400;49.744;7.012;2023-04-30T05:04:42;96344.75;;;8.36;100.00
33454;BME280;39400;49.744;7.012;2023-04-30T05:07:07;96344.94;;;8.47;100.00
33454;BME280;39400;49.744;7.012;2023-04-30T05:09:33;96345.19;;;8.38;100.00
33454;BME280;39400;49.744;7.012;2023-04-30T05:11:58;96340.16;;;8.40;100.00
33454;BME280;39400;49.744;7.012;2023-04-30T05:14:24;96338.19;;;8.41;100.00
33454;BME280;39400;49.744;7.012;2023-04-30T05:16:49;96345.63;;;8.40;100.00
33454;BME280;39400;49.744;7.012;2023-04-30T05:19:14;96348.75;;;8.39;100.00
33454;BME280;39400;49.744;7.012;2023-04-30T05:21:40;96359.06;;;8.49;100.00
33454;BME280;39400;49.744;7.012;2023-04-30T05:24:05;96349.78;;;8.57;100.00
33454;BME280;39400;49.744;7.012;2023-04-30T05:26:30;96350.63;;;8.61;100.00
33454;BME280;39400;49.744;7.012;2023-04-30T05:28:56;96352.75;;;8.75;100.00
33454;BME280;39400;49.744;7.012;2023-04-30T05:31:21;96349.22;;;8.74;100.00
33454;BME280;39400;49.744;7.012;2023-04-30T05:33:47;96347.72;;;8.77;100.00
33454;BME280;39400;49.744;7.012;2023-04-30T05:36:12;96350.72;;;8.68;100.00
33454;BME280;39400;49.744;7.012;2023-04-30T05:38:38;96350.44;;;8.77;100.00
33454;BME280;39400;49.744;7.012;2023-04-30T05:41:03;96347.81;;;8.84;100.00
33454;BME280;39400;49.744;7.012;2023-04-30T05:43:28;96349.06;;;8.90;100.00
33454;BME280;39400;49.744;7.012;2023-04-30T05:45:54;96351.88;;;8.97;100.00
33454;BME280;39400;49.744;7.012;2023-04-30T05:48:19;96347.22;;;9.01;100.00
33454;BME280;39400;49.744;7.012;2023-04-30T05:50:44;96348.00;;;9.02;100.00
33454;BME280;39400;49.744;7.012;2023-04-30T05:53:10;96343.47;;;9.17;100.00
33454;BME280;39400;49.744;7.012;2023-04-30T05:55:35;96337.16;;;9.13;100.00
33454;BME280;39400;49.744;7.012;2023-04-30T05:58:00;96352.06;;;9.12;100.00
33454;BME280;39400;49.744;7.012;2023-04-30T06:00:26;96353.63;;;9.13;100.00
33454;BME280;39400;49.744;7.012;2023-04-30T06:02:51;96343.97;;;9.26;100.00
33454;BME280;39400;49.744;7.012;2023-04-30T06:05:16;96346.13;;;9.43;100.00
33454;BME280;39400;49.744;7.012;2023-04-30T06:07:42;96348.66;;;9.63;100.00
33454;BME280;39400;49.744;7.012;2023-04-30T06:10:07;96345.50;;;9.61;100.00
33454;BME280;39400;49.744;7.012;2023-04-30T06:12:33;96335.72;;;9.60;100.00
33454;BME280;39400;49.744;7.012;2023-04-30T06:14:58;96338.16;;;9.72;100.00
33454;BME280;39400;49.744;7.012;2023-04-30T06:17:23;96340.84;;;9.65;100.00
33454;BME280;39400;49.744;7.012;2023-04-30T06:19:49;96351.53;;;9.73;100.00
33454;BME280;39400;49.744;7.012;2023-04-30T06:22:14;96334.66;;;9.75;100.00
33454;BME280;39400;49.744;7.012;2023-04-30T06:24:39;96335.47;;;9.79;100.00
33454;BME280;39400;49.744;7.012;2023-04-30T06:27:04;96341.78;;;9.83;100.00
33454;BME280;39400;49.744;7.012;2023-04-30T06:29:30;96336.28;;;9.83;100.00
33454;BME280;39400;49.744;7.012;2023-04-30T06:31:55;96340.63;;;9.84;100.00
33454;BME280;39400;49.744;7.012;2023-04-30T06:34:20;96340.22;;;9.82;100.00
33454;BME280;39400;49.744;7.012;2023-04-30T06:36:46;96343.41;;;9.88;100.00
33454;BME280;39400;49.744;7.012;2023-04-30T06:42:33;96338.59;;;9.74;100.00
33454;BME280;39400;49.744;7.012;2023-04-30T06:45:02;96325.31;;;9.83;100.00
33454;BME280;39400;49.744;7.012;2023-04-30T06:47:29;96333.91;;;9.78;100.00
33454;BME280;39400;49.744;7.012;2023-04-30T06:49:55;96335.03;;;9.70;100.00
33454;BME280;39400;49.744;7.012;2023-04-30T06:52:20;96334.78;;;9.89;100.00
33454;BME280;39400;49.744;7.012;2023-04-30T06:54:46;96338.00;;;9.98;100.00
33454;BME280;39400;49.744;7.012;2023-04-30T06:57:14;96339.94;;;9.94;100.00
33454;BME280;39400;49.744;7.012;2023-04-30T06:59:39;96328.31;;;10.12;100.00
33454;BME280;39400;49.744;7.012;2023-04-30T07:02:05;96324.75;;;10.11;100.00
33454;BME280;39400;49.744;7.012;2023-04-30T07:04:30;96324.00;;;10.18;100.00
33454;BME280;39400;49.744;7.012;2023-04-30T07:06:56;96318.66;;;10.32;100.00
33454;BME280;39400;49.744;7.012;2023-04-30T07:09:21;96322.56;;;10.31;100.00
33454;BME280;39400;49.744;7.012;2023-04-30T07:11:46;96315.91;;;10.32;100.00
33454;BME280;39400;49.744;7.012;2023-04-30T07:14:12;96331.28;;;10.40;100.00
33454;BME280;39400;49.744;7.012;2023-04-30T07:16:37;96328.16;;;10.45;100.00
33454;BME280;39400;49.744;7.012;2023-04-30T07:19:02;96330.56;;;10.54;100.00
33454;BME280;39400;49.744;7.012;2023-04-30T07:21:28;96330.94;;;10.53;100.00
33454;BME280;39400;49.744;7.012;2023-04-30T07:23:53;96336.94;;;10.69;100.00
33454;BME280;39400;49.744;7.012;2023-04-30T07:26:19;96330.69;;;10.79;100.00
33454;BME280;39400;49.744;7.012;2023-04-30T07:28:47;96329.94;;;10.82;100.00
33454;BME280;39400;49.744;7.012;2023-04-30T07:31:12;96337.03;;;10.90;100.00
33454;BME280;39400;49.744;7.012;2023-04-30T07:33:38;96334.72;;;11.00;100.00
33454;BME280;39400;49.744;7.012;2023-04-30T07:36:03;96331.56;;;10.98;100.00
33454;BME280;39400;49.744;7.012;2023-04-30T07:38:29;96333.94;;;11.03;100.00
33454;BME280;39400;49.744;7.012;2023-04-30T07:40:54;96325.31;;;11.08;100.00
33454;BME280;39400;49.744;7.012;2023-04-30T07:43:20;96337.97;;;11.23;100.00
33454;BME280;39400;49.744;7.012;2023-04-30T07:45:45;96343.88;;;11.36;100.00
33454;BME280;39400;49.744;7.012;2023-04-30T07:48:10;96331.31;;;11.46;100.00
33454;BME280;39400;49.744;7.012;2023-04-30T07:50:36;96341.59;;;11.74;100.00
33454;BME280;39400;49.744;7.012;2023-04-30T07:53:01;96332.56;;;11.80;99.38
33454;BME280;39400;49.744;7.012;2023-04-30T07:55:26;96340.91;;;12.16;99.44
33454;BME280;39400;49.744;7.012;2023-04-30T07:57:52;96331.00;;;12.29;92.59
33454;BME280;39400;49.744;7.012;2023-04-30T08:00:17;96345.59;;;12.41;92.84
33454;BME280;39400;49.744;7.012;2023-04-30T08:02:43;96342.84;;;12.44;92.35
33454;BME280;39400;49.744;7.012;2023-04-30T08:05:08;96340.06;;;12.44;92.60
33454;BME280;39400;49.744;7.012;2023-04-30T08:07:33;96334.13;;;12.60;92.05
33454;BME280;39400;49.744;7.012;2023-04-30T08:09:59;96333.72;;;12.65;93.91
33454;BME280;39400;49.744;7.012;2023-04-30T08:12:24;96333.34;;;12.63;92.47
33454;BME280;39400;49.744;7.012;2023-04-30T08:14:59;96338.03;;;12.73;92.58
33454;BME280;39400;49.744;7.012;2023-04-30T08:17:24;96338.06;;;12.66;92.84
33454;BME280;39400;49.744;7.012;2023-04-30T08:19:50;96345.94;;;12.75;89.15
33454;BME280;39400;49.744;7.012;2023-04-30T08:22:15;96346.69;;;12.82;90.25
33454;BME280;39400;49.744;7.012;2023-04-30T08:24:40;96346.69;;;12.82;86.16
33454;BME280;39400;49.744;7.012;2023-04-30T08:27:06;96353.69;;;13.08;83.20
33454;BME280;39400;49.744;7.012;2023-04-30T08:29:31;96346.25;;;12.91;87.23
33454;BME280;39400;49.744;7.012;2023-04-30T08:32:01;96348.25;;;12.87;83.25
33454;BME280;39400;49.744;7.012;2023-04-30T08:34:27;96348.97;;;13.02;85.16
33454;BME280;39400;49.744;7.012;2023-04-30T08:36:52;96353.28;;;13.24;80.92
33454;BME280;39400;49.744;7.012;2023-04-30T08:39:17;96347.03;;;13.06;82.06
33454;BME280;39400;49.744;7.012;2023-04-30T08:41:45;96348.97;;;13.09;80.39
33454;BME280;39400;49.744;7.012;2023-04-30T08:44:10;96361.78;;;13.62;76.27
33454;BME280;39400;49.744;7.012;2023-04-30T08:46:37;96351.53;;;13.59;78.17
33454;BME280;39400;49.744;7.012;2023-04-30T08:49:03;96354.44;;;13.34;78.11
33454;BME280;39400;49.744;7.012;2023-04-30T08:51:30;96345.00;;;13.17;75.72
33454;BME280;39400;49.744;7.012;2023-04-30T08:53:56;96368.66;;;13.25;76.99
33454;BME280;39400;49.744;7.012;2023-04-30T08:56:22;96356.09;;;13.03;76.29
33454;BME280;39400;49.744;7.012;2023-04-30T08:58:47;96362.00;;;13.05;76.80
33454;BME280;39400;49.744;7.012;2023-04-30T09:01:13;96363.25;;;12.86;75.09
33454;BME280;39400;49.744;7.012;2023-04-30T09:03:39;96356.13;;;12.81;75.02
33454;BME280;39400;49.744;7.012;2023-04-30T09:06:04;96361.66;;;12.96;76.58
33454;BME280;39400;49.744;7.012;2023-04-30T09:08:44;96369.91;;;13.03;76.03
33454;BME280;39400;49.744;7.012;2023-04-30T09:11:29;96367.47;;;13.19;77.92
33454;BME280;39400;49.744;7.012;2023-04-30T09:13:57;96371.81;;;13.27;78.38
33454;BME280;39400;49.744;7.012;2023-04-30T09:16:24;96360.72;;;13.38;76.29
33454;BME280;39400;49.744;7.012;2023-04-30T09:18:51;96363.03;;;13.47;76.82
33454;BME280;39400;49.744;7.012;2023-04-30T09:21:30;96362.19;;;13.57;75.19
33454;BME280;39400;49.744;7.012;2023-04-30T09:23:57;96355.06;;;13.63;74.78
33454;BME280;39400;49.744;7.012;2023-04-30T09:26:41;96358.31;;;13.47;73.95
33454;BME280;39400;49.744;7.012;2023-04-30T09:29:06;96361.50;;;13.39;75.83
33454;BME280;39400;49.744;7.012;2023-04-30T09:31:32;96360.69;;;13.42;74.90
33454;BME280;39400;49.744;7.012;2023-04-30T09:33:58;96352.84;;;13.22;76.35
33454;BME280;39400;49.744;7.012;2023-04-30T09:36:23;96361.06;;;13.51;77.79
33454;BME280;39400;49.744;7.012;2023-04-30T09:38:48;96368.41;;;13.75;79.60
33454;BME280;39400;49.744;7.012;2023-04-30T09:41:25;96363.06;;;14.06;76.58
33454;BME280;39400;49.744;7.012;2023-04-30T09:43:52;96346.56;;;13.92;74.47
33454;BME280;39400;49.744;7.012;2023-04-30T09:46:19;96359.94;;;14.04;74.25
33454;BME280;39400;49.744;7.012;2023-04-30T09:48:44;96366.06;;;13.70;75.50
33454;BME280;39400;49.744;7.012;2023-04-30T09:51:10;96366.81;;;13.74;75.83
33454;BME280;39400;49.744;7.012;2023-04-30T09:53:41;96373.13;;;13.75;78.73
33454;BME280;39400;49.744;7.012;2023-04-30T09:56:07;96361.22;;;13.85;76.13
33454;BME280;39400;49.744;7.012;2023-04-30T09:58:36;96358.94;;;13.76;76.01
33454;BME280;39400;49.744;7.012;2023-04-30T10:01:04;96361.28;;;13.74;74.06
33454;BME280;39400;49.744;7.012;2023-04-30T10:03:30;96352.66;;;13.69;72.69
33454;BME280;39400;49.744;7.012;2023-04-30T10:05:56;96355.06;;;13.63;74.86
33454;BME280;39400;49.744;7.012;2023-04-30T10:08:30;96354.88;;;13.92;75.16
33454;BME280;39400;49.744;7.012;2023-04-30T10:11:02;96350.75;;;14.14;74.36
33454;BME280;39400;49.744;7.012;2023-04-30T10:13:30;96348.13;;;14.45;74.97
33454;BME280;39400;49.744;7.012;2023-04-30T10:15:58;96355.13;;;14.60;73.01
33454;BME280;39400;49.744;7.012;2023-04-30T10:18:32;96351.09;;;14.68;74.12
33454;BME280;39400;49.744;7.012;2023-04-30T10:20:58;96341.72;;;14.59;70.69
33454;BME280;39400;49.744;7.012;2023-04-30T10:23:28;96336.72;;;14.81;71.96
33454;BME280;39400;49.744;7.012;2023-04-30T10:25:55;96325.00;;;14.69;71.02
33454;BME280;39400;49.744;7.012;2023-04-30T10:28:22;96333.81;;;14.57;68.90
33454;BME280;39400;49.744;7.012;2023-04-30T10:30:49;96330.78;;;14.37;70.65
33454;BME280;39400;49.744;7.012;2023-04-30T10:33:33;96331.66;;;14.31;69.93
33454;BME280;39400;49.744;7.012;2023-04-30T10:36:06;96330.94;;;14.19;69.44
33454;BME280;39400;49.744;7.012;2023-04-30T10:38:36;96338.66;;;14.42;71.62
33454;BME280;39400;49.744;7.012;2023-04-30T10:41:05;96326.03;;;14.41;72.09
33454;BME280;39400;49.744;7.012;2023-04-30T10:43:31;96327.03;;;14.65;72.47
33454;BME280;39400;49.744;7.012;2023-04-30T10:45:57;96328.13;;;14.71;72.74
33454;BME280;39400;49.744;7.012;2023-04-30T10:48:23;96318.63;;;14.72;72.55
33454;BME280;39400;49.744;7.012;2023-04-30T10:50:50;96311.44;;;14.79;70.86
33454;BME280;39400;49.744;7.012;2023-04-30T10:53:17;96317.94;;;14.61;71.18
33454;BME280;39400;49.744;7.012;2023-04-30T10:55:47;96290.88;;;14.80;71.82
33454;BME280;39400;49.744;7.012;2023-04-30T10:58:23;96308.94;;;14.91;71.56
33454;BME280;39400;49.744;7.012;2023-04-30T11:00:50;96308.94;;;14.91;72.17
33454;BME280;39400;49.744;7.012;2023-04-30T11:03:24;96299.66;;;15.05;72.39
33454;BME280;39400;49.744;7.012;2023-04-30T11:05:49;96297.53;;;15.16;71.77
33454;BME280;39400;49.744;7.012;2023-04-30T11:08:15;96299.63;;;15.39;68.53
33454;BME280;39400;49.744;7.012;2023-04-30T11:10:55;96290.72;;;14.94;69.95
33454;BME280;39400;49.744;7.012;2023-04-30T11:13:21;96292.91;;;15.06;73.74
33454;BME280;39400;49.744;7.012;2023-04-30T11:15:46;96282.31;;;15.32;73.84
33454;BME280;39400;49.744;7.012;2023-04-30T11:18:12;96278.88;;;15.51;71.20
33454;BME280;39400;49.744;7.012;2023-04-30T11:20:48;96262.88;;;15.62;67.26
33454;BME280;39400;49.744;7.012;2023-04-30T11:23:15;96277.50;;;15.66;66.25
33454;BME280;39400;49.744;7.012;2023-04-30T11:28:07;96279.94;;;15.88;66.12
33454;BME280;39400;49.744;7.012;2023-04-30T11:30:33;96281.50;;;15.89;69.73
33454;BME280;39400;49.744;7.012;2023-04-30T11:33:00;96279.63;;;15.82;67.04
33454;BME280;39400;49.744;7.012;2023-04-30T11:35:27;96283.03;;;15.93;67.58
33454;BME280;39400;49.744;7.012;2023-04-30T11:37:54;96279.69;;;16.02;67.14
33454;BME280;39400;49.744;7.012;2023-04-30T11:40:19;96286.34;;;16.08;66.23
33454;BME280;39400;49.744;7.012;2023-04-30T11:42:45;96270.78;;;16.14;68.20
33454;BME280;39400;49.744;7.012;2023-04-30T11:45:12;96275.59;;;16.10;66.52
33454;BME280;39400;49.744;7.012;2023-04-30T11:47:46;96278.28;;;16.17;67.34
33454;BME280;39400;49.744;7.012;2023-04-30T11:50:14;96273.56;;;16.14;69.15
33454;BME280;39400;49.744;7.012;2023-04-30T11:52:41;96268.50;;;16.09;67.39
33454;BME280;39400;49.744;7.012;2023-04-30T11:55:14;96265.31;;;16.11;66.63
33454;BME280;39400;49.744;7.012;2023-04-30T11:57:42;96261.25;;;16.15;65.60
33454;BME280;39400;49.744;7.012;2023-04-30T12:00:10;96267.00;;;16.05;68.09
33454;BME280;39400;49.744;7.012;2023-04-30T12:02:36;96262.94;;;16.09;64.29
33454;BME280;39400;49.744;7.012;2023-04-30T12:05:01;96258.59;;;16.32;67.69
33454;BME280;39400;49.744;7.012;2023-04-30T12:07:27;96264.16;;;16.32;65.40
33454;BME280;39400;49.744;7.012;2023-04-30T12:09:53;96253.31;;;16.17;63.88
33454;BME280;39400;49.744;7.012;2023-04-30T12:12:28;96245.88;;;15.87;65.29
33454;BME280;39400;49.744;7.012;2023-04-30T12:14:54;96241.66;;;15.52;65.26
33454;BME280;39400;49.744;7.012;2023-04-30T12:17:32;96249.38;;;15.64;64.60
33454;BME280;39400;49.744;7.012;2023-04-30T12:19:58;96245.38;;;15.69;65.12
33454;BME280;39400;49.744;7.012;2023-04-30T12:22:23;96239.78;;;15.73;68.52
33454;BME280;39400;49.744;7.012;2023-04-30T12:24:49;96256.78;;;15.98;69.57
33454;BME280;39400;49.744;7.012;2023-04-30T12:27:14;96255.84;;;16.08;66.82
33454;BME280;39400;49.744;7.012;2023-04-30T12:29:43;96234.59;;;16.22;65.13
33454;BME280;39400;49.744;7.012;2023-04-30T12:32:08;96245.25;;;16.67;66.47
33454;BME280;39400;49.744;7.012;2023-04-30T12:34:36;96232.72;;;16.58;64.09
33454;BME280;39400;49.744;7.012;2023-04-30T12:37:02;96240.25;;;16.58;65.07
33454;BME280;39400;49.744;7.012;2023-04-30T12:39:32;96239.88;;;16.36;63.82
33454;BME280;39400;49.744;7.012;2023-04-30T12:41:59;96230.75;;;16.15;63.24
33454;BME280;39400;49.744;7.012;2023-04-30T12:44:26;96234.72;;;15.91;65.70
33454;BME280;39400;49.744;7.012;2023-04-30T12:46:57;96245.09;;;15.87;65.97
33454;BME280;39400;49.744;7.012;2023-04-30T12:49:23;96248.53;;;16.18;68.66
33454;BME280;39400;49.744;7.012;2023-04-30T12:51:49;96249.72;;;16.40;63.54
33454;BME280;39400;49.744;7.012;2023-04-30T12:54:23;96247.13;;;16.73;65.51
33454;BME280;39400;49.744;7.012;2023-04-30T12:57:08;96235.59;;;17.15;65.32
33454;BME280;39400;49.744;7.012;2023-04-30T12:59:36;96223.81;;;17.43;66.13
33454;BME280;39400;49.744;7.012;2023-04-30T13:02:07;96223.13;;;17.39;62.53
33454;BME280;39400;49.744;7.012;2023-04-30T13:04:33;96239.25;;;17.28;63.60
33454;BME280;39400;49.744;7.012;2023-04-30T13:06:59;96235.97;;;17.33;64.09
33454;BME280;39400;49.744;7.012;2023-04-30T13:12:53;96237.56;;;17.50;63.23
33454;BME280;39400;49.744;7.012;2023-04-30T13:15:18;96222.19;;;17.46;62.19
33454;BME280;39400;49.744;7.012;2023-04-30T13:17:43;96230.41;;;17.33;62.63